Time;durP1;ratioP1;P1;durP2;ratioP2;P2;SDS_P1;SDS_P2;PMS_P1;PMS_P2;Temp;Humidity;BMP_temperature;BMP_pressure;BME280_temperature;BME280_humidity;BME280_pressure;Samples;Min_cycle;Max_cycle;Signal;HPM_P1;HPM_P2
2022/11/01 00:01:33;;;;;;;9.70;4.40;;;;;;;;;;4911239;29;20666;-65
2022/11/01 00:04:00;;;;;;;7.27;4.47;;;;;;;;;;4909455;29;20217;-65
2022/11/01 00:06:28;;;;;;;9.77;4.83;;;;;;;;;;4912864;29;20200;-65
2022/11/01 00:08:55;;;;;;;7.53;4.90;;;;;;;;;;4909739;29;20215;-66
2022/11/01 00:11:22;;;;;;;9.73;5.07;;;;;;;;;;4911438;29;20211;-66
2022/11/01 00:13:50;;;;;;;6.23;4.83;;;;;;;;;;4909994;29;20216;-65
2022/11/01 00:16:18;;;;;;;8.90;5.50;;;;;;;;;;4914007;29;20209;-65
2022/11/01 00:18:45;;;;;;;6.07;4.50;;;;;;;;;;4906653;29;20220;-65
2022/11/01 00:21:13;;;;;;;9.77;4.97;;;;;;;;;;4912800;29;20213;-66
2022/11/01 00:23:40;;;;;;;7.77;4.57;;;;;;;;;;4914102;29;20212;-66
2022/11/01 00:26:07;;;;;;;7.77;4.40;;;;;;;;;;4914372;29;20208;-66
2022/11/01 00:28:35;;;;;;;6.27;4.50;;;;;;;;;;4913579;29;20216;-65
2022/11/01 00:31:03;;;;;;;11.93;4.70;;;;;;;;;;4913850;29;20252;-66
2022/11/01 00:33:30;;;;;;;13.40;4.90;;;;;;;;;;4914057;29;20212;-65
2022/11/01 00:36:00;;;;;;;4.83;4.17;;;;;;;;;;4913860;29;20212;-65
2022/11/01 00:38:27;;;;;;;7.23;4.53;;;;;;;;;;4913781;29;20212;-66
2022/11/01 00:40:54;;;;;;;5.83;4.60;;;;;;;;;;4911881;29;20263;-65
2022/11/01 00:43:22;;;;;;;9.17;4.83;;;;;;;;;;4905105;29;20257;-66
2022/11/01 00:45:49;;;;;;;5.63;4.37;;;;;;;;;;4900605;29;20221;-66
2022/11/01 00:48:17;;;;;;;6.57;5.00;;;;;;;;;;4901589;29;20220;-65
2022/11/01 00:50:44;;;;;;;4.57;4.10;;;;;;;;;;4910762;29;20214;-65
2022/11/01 00:53:12;;;;;;;5.27;4.60;;;;;;;;;;4913490;29;20691;-65
2022/11/01 00:55:40;;;;;;;7.97;4.30;;;;;;;;;;4913495;29;20254;-65
2022/11/01 00:58:07;;;;;;;9.50;4.03;;;;;;;;;;4912809;29;20228;-65
2022/11/01 01:00:35;;;;;;;6.63;4.33;;;;;;;;;;4913100;29;20228;-65
2022/11/01 01:03:02;;;;;;;8.97;4.40;;;;;;;;;;4913296;29;20219;-65
2022/11/01 01:05:31;;;;;;;6.07;4.10;;;;;;;;;;4913616;29;20204;-65
2022/11/01 01:07:58;;;;;;;5.87;3.90;;;;;;;;;;4913254;29;20227;-64
2022/11/01 01:10:25;;;;;;;3.43;3.13;;;;;;;;;;4911925;29;20212;-65
2022/11/01 01:12:52;;;;;;;7.80;4.03;;;;;;;;;;4912691;29;20216;-65
2022/11/01 01:15:19;;;;;;;7.00;4.03;;;;;;;;;;4912756;29;20679;-65
2022/11/01 01:17:46;;;;;;;5.03;3.97;;;;;;;;;;4910977;29;20213;-66
2022/11/01 01:20:14;;;;;;;4.53;3.70;;;;;;;;;;4911217;29;20235;-65
2022/11/01 01:22:42;;;;;;;9.57;4.10;;;;;;;;;;4911984;29;20290;-65
2022/11/01 01:25:10;;;;;;;4.07;3.63;;;;;;;;;;4911384;29;20672;-65
2022/11/01 01:27:37;;;;;;;9.00;3.67;;;;;;;;;;4911624;29;20200;-65
2022/11/01 01:30:04;;;;;;;7.13;4.10;;;;;;;;;;4910905;29;20204;-66
2022/11/01 01:32:31;;;;;;;3.97;3.67;;;;;;;;;;4907231;29;20267;-66
2022/11/01 01:34:59;;;;;;;5.77;3.80;;;;;;;;;;4910319;29;20205;-65
2022/11/01 01:37:26;;;;;;;5.67;4.07;;;;;;;;;;4911878;29;20219;-65
2022/11/01 01:39:54;;;;;;;7.37;4.07;;;;;;;;;;4910837;29;20235;-65
2022/11/01 01:42:26;;;;;;;5.93;3.83;;;;;;;;;;4910996;29;20228;-65
2022/11/01 01:45:14;;;;;;;6.70;4.43;;;;;;;;;;4911142;29;20205;-65
2022/11/01 01:47:42;;;;;;;5.50;3.60;;;;;;;;;;4904946;29;20233;-65
2022/11/01 01:50:11;;;;;;;4.83;3.70;;;;;;;;;;4911421;29;20205;-65
2022/11/01 01:52:40;;;;;;;6.80;4.17;;;;;;;;;;4911344;29;20208;-65
2022/11/01 01:55:09;;;;;;;8.47;4.03;;;;;;;;;;4911794;29;20224;-66
2022/11/01 01:57:37;;;;;;;7.10;4.50;;;;;;;;;;4911382;29;20259;-65
2022/11/01 02:00:05;;;;;;;4.40;3.73;;;;;;;;;;4910970;29;20232;-65
2022/11/01 02:02:32;;;;;;;7.53;4.70;;;;;;;;;;4910073;29;20243;-65
2022/11/01 02:05:01;;;;;;;9.33;4.57;;;;;;;;;;4911055;29;20275;-66
2022/11/01 02:07:28;;;;;;;4.43;4.00;;;;;;;;;;4910283;29;20205;-65
2022/11/01 02:09:56;;;;;;;8.73;4.80;;;;;;;;;;4910765;29;20223;-65
2022/11/01 02:12:25;;;;;;;6.70;4.10;;;;;;;;;;4910469;29;20298;-65
2022/11/01 02:14:52;;;;;;;6.67;3.70;;;;;;;;;;4910637;29;20618;-65
2022/11/01 02:17:23;;;;;;;6.20;3.97;;;;;;;;;;4910242;29;20208;-65
2022/11/01 02:20:14;;;;;;;4.23;3.83;;;;;;;;;;4910680;29;20236;-65
2022/11/01 02:22:50;;;;;;;7.10;3.77;;;;;;;;;;4907836;29;20201;-65
2022/11/01 02:25:24;;;;;;;5.53;4.23;;;;;;;;;;4910290;29;20667;-65
2022/11/01 02:27:58;;;;;;;4.30;3.73;;;;;;;;;;4910472;29;20226;-66
2022/11/01 02:30:25;;;;;;;4.07;3.73;;;;;;;;;;4906785;29;20205;-66
2022/11/01 02:33:00;;;;;;;4.87;4.23;;;;;;;;;;4910919;29;20212;-65
2022/11/01 02:35:31;;;;;;;4.13;3.73;;;;;;;;;;4909762;29;20299;-65
2022/11/01 02:38:01;;;;;;;6.80;4.87;;;;;;;;;;4909810;29;20212;-65
2022/11/01 02:40:30;;;;;;;7.87;4.07;;;;;;;;;;4910409;29;20221;-66
2022/11/01 02:43:01;;;;;;;4.50;3.83;;;;;;;;;;4909984;29;20215;-65
2022/11/01 02:45:30;;;;;;;6.50;4.07;;;;;;;;;;4910224;29;20212;-65
2022/11/01 02:47:59;;;;;;;7.07;3.93;;;;;;;;;;4909390;29;20208;-65
2022/11/01 02:50:28;;;;;;;4.93;3.77;;;;;;;;;;4907182;29;20203;-65
2022/11/01 02:52:55;;;;;;;4.93;4.20;;;;;;;;;;4909273;29;20239;-65
2022/11/01 02:55:30;;;;;;;4.90;3.93;;;;;;;;;;4909433;29;20228;-65
2022/11/01 02:57:57;;;;;;;4.57;3.93;;;;;;;;;;4910564;29;20231;-65
2022/11/01 03:00:26;;;;;;;10.87;4.70;;;;;;;;;;4910966;29;20228;-65
2022/11/01 03:03:06;;;;;;;4.10;3.70;;;;;;;;;;4911174;29;20228;-66
2022/11/01 03:05:37;;;;;;;5.90;3.57;;;;;;;;;;4910762;29;20231;-66
2022/11/01 03:08:06;;;;;;;6.10;3.60;;;;;;;;;;4911050;29;20204;-65
2022/11/01 03:10:37;;;;;;;4.13;3.60;;;;;;;;;;4910775;29;20208;-66
2022/11/01 03:13:08;;;;;;;4.33;3.47;;;;;;;;;;4911186;29;20682;-65
2022/11/01 03:15:39;;;;;;;6.23;4.00;;;;;;;;;;4911020;29;20212;-65
2022/11/01 03:18:10;;;;;;;5.57;3.93;;;;;;;;;;4910456;29;20240;-65
2022/11/01 03:20:47;;;;;;;7.80;4.60;;;;;;;;;;4910835;29;20239;-65
2022/11/01 03:23:15;;;;;;;9.70;4.10;;;;;;;;;;4915173;29;20212;-65
2022/11/01 03:25:46;;;;;;;8.80;4.10;;;;;;;;;;4914519;29;20213;-65
2022/11/01 03:28:15;;;;;;;4.27;3.87;;;;;;;;;;4913919;29;20228;-65
2022/11/01 03:30:45;;;;;;;7.73;4.03;;;;;;;;;;4914294;29;20223;-65
2022/11/01 03:33:15;;;;;;;11.37;5.80;;;;;;;;;;4904850;29;20279;-65
2022/11/01 03:35:45;;;;;;;11.30;5.07;;;;;;;;;;4913523;29;20208;-65
2022/11/01 03:38:14;;;;;;;7.00;5.60;;;;;;;;;;4901669;29;20700;-65
2022/11/01 03:40:42;;;;;;;13.93;5.97;;;;;;;;;;4908501;29;20225;-65
2022/11/01 03:43:11;;;;;;;9.97;4.87;;;;;;;;;;4911725;29;20215;-65
2022/11/01 03:45:40;;;;;;;8.40;4.90;;;;;;;;;;4914296;29;20211;-65
2022/11/01 03:48:07;;;;;;;9.40;5.13;;;;;;;;;;4914128;29;20213;-64
2022/11/01 03:50:37;;;;;;;8.83;5.10;;;;;;;;;;4913071;29;20207;-66
2022/11/01 03:53:04;;;;;;;5.80;5.20;;;;;;;;;;4910224;29;20345;-65
2022/11/01 03:55:31;;;;;;;5.93;4.83;;;;;;;;;;4912686;29;20236;-65
2022/11/01 03:58:10;;;;;;;6.03;4.93;;;;;;;;;;4913764;29;20995;-65
2022/11/01 04:00:40;;;;;;;8.10;5.65;;;;;;;;;;4913378;29;20224;-65
2022/11/01 04:03:07;;;;;;;5.63;5.03;;;;;;;;;;4911810;29;20209;-65
2022/11/01 04:05:36;;;;;;;7.85;5.03;;;;;;;;;;4911414;29;20423;-65
2022/11/01 04:08:04;;;;;;;9.40;5.97;;;;;;;;;;4913987;29;20209;-65
2022/11/01 04:10:31;;;;;;;7.47;5.50;;;;;;;;;;4912431;29;20201;-65
2022/11/01 04:12:58;;;;;;;6.40;5.47;;;;;;;;;;4913008;29;20263;-65
2022/11/01 04:21:01;;;;;;;8.70;5.37;;;;;;;;;;4913630;29;20235;-65
2022/11/01 04:23:28;;;;;;;10.80;5.97;;;;;;;;;;4912075;29;20213;-65
2022/11/01 04:25:55;;;;;;;10.83;6.33;;;;;;;;;;4912213;29;20223;-65
2022/11/01 04:28:22;;;;;;;12.53;5.60;;;;;;;;;;4913026;29;20208;-65
2022/11/01 04:30:49;;;;;;;9.27;4.97;;;;;;;;;;4914005;29;20207;-65
2022/11/01 04:33:17;;;;;;;6.30;4.97;;;;;;;;;;4907657;29;20212;-65
2022/11/01 04:35:44;;;;;;;8.10;5.10;;;;;;;;;;4907059;29;20213;-65
2022/11/01 04:38:13;;;;;;;9.57;5.77;;;;;;;;;;4913913;29;20236;-65
2022/11/01 04:40:40;;;;;;;8.00;5.93;;;;;;;;;;4913958;29;20239;-65
2022/11/01 04:43:07;;;;;;;9.45;5.80;;;;;;;;;;4913590;29;20213;-65
2022/11/01 04:45:34;;;;;;;7.20;5.70;;;;;;;;;;4908232;29;20206;-65
2022/11/01 04:48:02;;;;;;;6.88;5.25;;;;;;;;;;4909124;29;20208;-65
2022/11/01 04:50:29;;;;;;;6.00;5.07;;;;;;;;;;4913821;29;20236;-66
2022/11/01 04:52:58;;;;;;;8.93;5.50;;;;;;;;;;4913445;29;20219;-66
2022/11/01 04:55:26;;;;;;;9.47;5.60;;;;;;;;;;4910236;29;20228;-65
2022/11/01 04:57:53;;;;;;;8.33;5.10;;;;;;;;;;4904955;29;20232;-65
2022/11/01 05:00:21;;;;;;;9.10;5.22;;;;;;;;;;4911780;29;20213;-65
2022/11/01 05:02:49;;;;;;;11.40;5.40;;;;;;;;;;4910933;29;20220;-64
2022/11/01 05:05:16;;;;;;;11.50;5.57;;;;;;;;;;4912977;29;20212;-65
2022/11/01 05:07:43;;;;;;;6.20;5.20;;;;;;;;;;4912859;29;20491;-65
2022/11/01 05:10:10;;;;;;;9.05;5.75;;;;;;;;;;4913251;29;20707;-65
2022/11/01 05:12:39;;;;;;;9.67;5.33;;;;;;;;;;4912779;29;20219;-65
2022/11/01 05:15:07;;;;;;;9.35;5.10;;;;;;;;;;4911769;29;20208;-65
2022/11/01 05:17:34;;;;;;;10.32;5.72;;;;;;;;;;4911814;29;20235;-65
2022/11/01 05:20:01;;;;;;;6.23;5.27;;;;;;;;;;4911843;29;20204;-65
2022/11/01 05:22:28;;;;;;;7.20;5.13;;;;;;;;;;4912194;29;20311;-65
2022/11/01 05:24:55;;;;;;;11.73;5.95;;;;;;;;;;4912311;29;20224;-65
2022/11/01 05:27:22;;;;;;;7.68;5.50;;;;;;;;;;4911389;29;20208;-65
2022/11/01 05:29:50;;;;;;;10.65;5.82;;;;;;;;;;4908058;29;20213;-65
2022/11/01 05:32:17;;;;;;;10.23;5.90;;;;;;;;;;4912524;29;20209;-65
2022/11/01 05:34:48;;;;;;;7.70;5.00;;;;;;;;;;4913489;29;20239;-65
2022/11/01 05:37:15;;;;;;;10.23;5.35;;;;;;;;;;4913123;29;20209;-65
2022/11/01 05:39:43;;;;;;;10.97;5.23;;;;;;;;;;4913400;29;20569;-65
2022/11/01 05:42:10;;;;;;;5.65;5.07;;;;;;;;;;4913066;29;20220;-65
2022/11/01 05:44:37;;;;;;;8.50;5.45;;;;;;;;;;4913447;29;20219;-65
2022/11/01 05:47:05;;;;;;;8.80;5.73;;;;;;;;;;4913196;29;20208;-65
2022/11/01 05:49:32;;;;;;;9.52;5.60;;;;;;;;;;4912580;29;20216;-65
2022/11/01 05:51:59;;;;;;;7.00;6.03;;;;;;;;;;4912892;29;20726;-65
2022/11/01 05:54:26;;;;;;;9.45;5.95;;;;;;;;;;4913292;29;20239;-65
2022/11/01 05:56:53;;;;;;;9.05;5.60;;;;;;;;;;4901628;29;20244;-65
2022/11/01 05:59:20;;;;;;;19.67;5.82;;;;;;;;;;4905657;29;20694;-65
2022/11/01 06:01:47;;;;;;;6.43;5.43;;;;;;;;;;4912634;29;20236;-65
2022/11/01 06:04:16;;;;;;;7.22;5.75;;;;;;;;;;4911959;29;20687;-65
2022/11/01 06:06:43;;;;;;;12.05;5.47;;;;;;;;;;4908144;29;20227;-65
2022/11/01 06:09:10;;;;;;;7.68;5.75;;;;;;;;;;4912750;29;20212;-65
2022/11/01 06:11:37;;;;;;;12.77;5.95;;;;;;;;;;4912181;29;20200;-64
2022/11/01 06:14:04;;;;;;;7.65;5.35;;;;;;;;;;4912321;29;20216;-65
2022/11/01 06:16:37;;;;;;;9.85;5.75;;;;;;;;;;4909708;29;20891;-65
2022/11/01 06:19:04;;;;;;;11.18;5.60;;;;;;;;;;4912429;29;20212;-64
2022/11/01 06:21:32;;;;;;;14.10;5.53;;;;;;;;;;4912113;29;20228;-64
2022/11/01 06:23:59;;;;;;;7.13;5.13;;;;;;;;;;4912518;29;20216;-64
2022/11/01 06:26:26;;;;;;;7.43;5.00;;;;;;;;;;4910880;29;20521;-65
2022/11/01 06:28:53;;;;;;;8.80;6.18;;;;;;;;;;4911632;29;20215;-65
2022/11/01 06:31:20;;;;;;;8.80;5.22;;;;;;;;;;4900524;29;20303;-63
2022/11/01 06:33:49;;;;;;;8.85;5.70;;;;;;;;;;4909676;29;20209;-65
2022/11/01 06:36:16;;;;;;;10.52;5.55;;;;;;;;;;4906295;29;20234;-65
2022/11/01 06:38:45;;;;;;;9.67;5.47;;;;;;;;;;4911016;29;20215;-66
2022/11/01 06:41:12;;;;;;;7.63;5.40;;;;;;;;;;4911437;29;20228;-67
2022/11/01 06:43:53;;;;;;;9.25;5.45;;;;;;;;;;4911511;29;20204;-65
2022/11/01 06:46:21;;;;;;;6.55;4.97;;;;;;;;;;4909720;29;20256;-67
2022/11/01 06:48:48;;;;;;;7.20;5.10;;;;;;;;;;4910854;29;20299;-65
2022/11/01 06:51:15;;;;;;;7.85;5.93;;;;;;;;;;4912099;29;20264;-65
2022/11/01 06:53:42;;;;;;;10.77;5.72;;;;;;;;;;4910387;29;20232;-65
2022/11/01 06:56:11;;;;;;;7.33;5.00;;;;;;;;;;4910344;29;20715;-65
2022/11/01 06:58:38;;;;;;;12.18;6.35;;;;;;;;;;4911280;29;20887;-65
2022/11/01 07:01:05;;;;;;;8.88;4.55;;;;;;;;;;4910611;29;20232;-65
2022/11/01 07:03:32;;;;;;;7.35;5.45;;;;;;;;;;4911459;29;20221;-65
2022/11/01 07:06:00;;;;;;;8.20;5.03;;;;;;;;;;4911503;29;20216;-65
2022/11/01 07:08:27;;;;;;;8.52;5.63;;;;;;;;;;4911281;29;20604;-65
2022/11/01 07:10:54;;;;;;;6.05;5.45;;;;;;;;;;4911381;29;20692;-65
2022/11/01 07:13:23;;;;;;;7.45;5.07;;;;;;;;;;4911482;29;20573;-65
2022/11/01 07:15:50;;;;;;;8.40;5.60;;;;;;;;;;4911315;29;20221;-65
2022/11/01 07:18:17;;;;;;;11.77;6.15;;;;;;;;;;4911440;29;20211;-65
2022/11/01 07:20:44;;;;;;;9.32;5.63;;;;;;;;;;4911228;29;20216;-65
2022/11/01 07:23:12;;;;;;;8.85;5.57;;;;;;;;;;4911319;29;20232;-64
2022/11/01 07:25:39;;;;;;;10.23;5.28;;;;;;;;;;4911416;29;20215;-64
2022/11/01 07:28:06;;;;;;;6.18;5.05;;;;;;;;;;4904833;29;20272;-64
2022/11/01 07:30:35;;;;;;;10.07;6.32;;;;;;;;;;4901409;29;20235;-63
2022/11/01 07:33:04;;;;;;;7.63;5.72;;;;;;;;;;4910636;29;20236;-64
2022/11/01 07:35:31;;;;;;;9.32;5.20;;;;;;;;;;4901652;29;20223;-64
2022/11/01 07:37:58;;;;;;;6.22;5.30;;;;;;;;;;4901983;29;20225;-65
2022/11/01 07:40:27;;;;;;;6.82;5.38;;;;;;;;;;4900603;29;20202;-65
2022/11/01 07:42:55;;;;;;;6.07;5.00;;;;;;;;;;4901477;29;20237;-65
2022/11/01 07:45:23;;;;;;;12.35;5.65;;;;;;;;;;4902572;29;20208;-65
2022/11/01 07:47:51;;;;;;;8.68;5.10;;;;;;;;;;4901369;29;20217;-64
2022/11/01 07:50:19;;;;;;;9.60;5.45;;;;;;;;;;4901107;29;20220;-65
2022/11/01 07:52:46;;;;;;;5.90;5.10;;;;;;;;;;4906052;29;20205;-64
2022/11/01 07:55:13;;;;;;;8.00;5.75;;;;;;;;;;4910758;29;20271;-65
2022/11/01 07:57:40;;;;;;;7.35;4.93;;;;;;;;;;4911056;29;20323;-64
2022/11/01 08:00:09;;;;;;;6.90;4.75;;;;;;;;;;4900900;29;20223;-62
2022/11/01 08:02:36;;;;;;;7.03;4.47;;;;;;;;;;4910584;29;20313;-63
2022/11/01 08:05:05;;;;;;;8.02;5.28;;;;;;;;;;4906207;29;20223;-63
2022/11/01 08:07:32;;;;;;;6.38;4.80;;;;;;;;;;4911058;29;20201;-63
2022/11/01 08:09:59;;;;;;;5.93;4.38;;;;;;;;;;4904042;29;20213;-64
2022/11/01 08:12:26;;;;;;;5.25;4.03;;;;;;;;;;4909033;29;20204;-63
2022/11/01 08:14:53;;;;;;;5.05;4.47;;;;;;;;;;4904722;29;20216;-64
2022/11/01 08:17:20;;;;;;;8.43;4.45;;;;;;;;;;4905704;29;20201;-64
2022/11/01 08:19:47;;;;;;;6.75;4.03;;;;;;;;;;4914374;29;20262;-64
2022/11/01 08:22:16;;;;;;;5.75;4.60;;;;;;;;;;4904667;29;20228;-64
2022/11/01 08:24:43;;;;;;;8.93;4.38;;;;;;;;;;4905572;29;20212;-64
2022/11/01 08:27:10;;;;;;;8.90;4.50;;;;;;;;;;4904774;29;20210;-64
2022/11/01 08:29:37;;;;;;;5.53;4.20;;;;;;;;;;4905099;29;20220;-64
2022/11/01 08:32:04;;;;;;;4.95;4.32;;;;;;;;;;4913854;29;20325;-64
2022/11/01 08:34:31;;;;;;;7.45;4.55;;;;;;;;;;4914260;29;20216;-64
2022/11/01 08:36:59;;;;;;;7.00;4.20;;;;;;;;;;4914438;29;20216;-64
2022/11/01 08:39:27;;;;;;;4.72;4.10;;;;;;;;;;4914393;29;20209;-64
2022/11/01 08:41:56;;;;;;;7.78;3.85;;;;;;;;;;4914049;29;20239;-64
2022/11/01 08:44:23;;;;;;;8.85;4.60;;;;;;;;;;4914115;29;20212;-69
2022/11/01 08:46:53;;;;;;;6.55;4.22;;;;;;;;;;4913759;29;20212;-68
2022/11/01 08:49:20;;;;;;;8.85;4.30;;;;;;;;;;4913923;29;20240;-69
2022/11/01 08:51:48;;;;;;;6.90;3.95;;;;;;;;;;4914072;29;20205;-64
2022/11/01 08:54:15;;;;;;;4.70;4.30;;;;;;;;;;4913268;29;20228;-65
2022/11/01 08:56:43;;;;;;;8.23;3.88;;;;;;;;;;4913374;29;20240;-65
2022/11/01 08:59:10;;;;;;;7.00;3.60;;;;;;;;;;4912674;29;20451;-65
2022/11/01 09:01:37;;;;;;;5.90;3.47;;;;;;;;;;4905930;29;20572;-67
2022/11/01 09:04:06;;;;;;;4.90;3.20;;;;;;;;;;4913154;29;20220;-65
2022/11/01 09:06:33;;;;;;;3.35;3.05;;;;;;;;;;4913755;29;20213;-64
2022/11/01 09:09:01;;;;;;;4.50;3.33;;;;;;;;;;4913263;29;20212;-64
2022/11/01 09:11:29;;;;;;;3.33;3.08;;;;;;;;;;4913504;29;20218;-65
2022/11/01 09:13:57;;;;;;;7.45;3.00;;;;;;;;;;4913421;29;20216;-65
2022/11/01 09:16:25;;;;;;;12.13;4.22;;;;;;;;;;4913611;29;20216;-65
2022/11/01 09:18:52;;;;;;;5.65;2.83;;;;;;;;;;4911486;29;20268;-64
2022/11/01 09:21:19;;;;;;;6.22;2.65;;;;;;;;;;4907987;29;20218;-65
2022/11/01 09:23:46;;;;;;;4.00;1.85;;;;;;;;;;4906769;29;20242;-64
2022/11/01 09:26:13;;;;;;;6.03;2.20;;;;;;;;;;4912037;29;20579;-64
2022/11/01 09:28:41;;;;;;;1.30;1.30;;;;;;;;;;4912984;29;20221;-64
2022/11/01 09:31:11;;;;;;;1.98;1.42;;;;;;;;;;4902374;29;20212;-65
2022/11/01 09:33:38;;;;;;;1.50;1.40;;;;;;;;;;4911263;29;20955;-64
2022/11/01 09:36:06;;;;;;;2.17;1.10;;;;;;;;;;4912147;29;20205;-65
2022/11/01 09:38:34;;;;;;;1.20;1.10;;;;;;;;;;4914302;29;20214;-65
2022/11/01 09:41:04;;;;;;;1.00;1.00;;;;;;;;;;4916281;29;20223;-65
2022/11/01 09:43:33;;;;;;;2.22;1.05;;;;;;;;;;4912644;29;20331;-65
2022/11/01 09:46:03;;;;;;;0.75;0.73;;;;;;;;;;4912635;29;20227;-64
2022/11/01 09:48:32;;;;;;;1.00;0.70;;;;;;;;;;4893573;29;20220;-64
2022/11/01 09:51:00;;;;;;;0.73;0.73;;;;;;;;;;4896615;29;20208;-65
2022/11/01 09:53:29;;;;;;;1.17;0.73;;;;;;;;;;4911974;29;20200;-64
2022/11/01 09:55:58;;;;;;;0.45;0.45;;;;;;;;;;4912300;29;20217;-65
2022/11/01 09:58:32;;;;;;;1.35;0.60;;;;;;;;;;4911362;29;20765;-64
2022/11/01 10:01:06;;;;;;;2.33;0.70;;;;;;;;;;4907550;29;20215;-64
2022/11/01 10:03:57;;;;;;;1.42;0.50;;;;;;;;;;4911017;29;20767;-64
2022/11/01 10:06:29;;;;;;;0.50;0.50;;;;;;;;;;4897276;29;20212;-65
2022/11/01 10:09:00;;;;;;;1.27;0.60;;;;;;;;;;4910800;29;20204;-64
2022/11/01 10:11:37;;;;;;;0.43;0.43;;;;;;;;;;4911532;29;20236;-65
2022/11/01 10:14:08;;;;;;;1.38;0.32;;;;;;;;;;4911699;29;20220;-64
2022/11/01 10:16:36;;;;;;;0.43;0.40;;;;;;;;;;4911920;29;20216;-64
2022/11/01 10:19:05;;;;;;;1.48;0.40;;;;;;;;;;4911484;29;20695;-64
2022/11/01 10:21:41;;;;;;;0.80;0.50;;;;;;;;;;4910476;29;20562;-64
2022/11/01 10:24:16;;;;;;;1.55;0.30;;;;;;;;;;4910956;29;20218;-65
2022/11/01 10:26:44;;;;;;;3.30;0.38;;;;;;;;;;4906914;29;20243;-65
2022/11/01 10:29:14;;;;;;;1.75;0.30;;;;;;;;;;4905292;29;20216;-65
2022/11/01 10:31:45;;;;;;;0.20;0.20;;;;;;;;;;4898701;29;20263;-66
2022/11/01 10:34:15;;;;;;;0.30;0.20;;;;;;;;;;4902191;29;20212;-66
2022/11/01 10:36:45;;;;;;;0.30;0.30;;;;;;;;;;4900987;29;20260;-66
2022/11/01 10:39:18;;;;;;;0.30;0.30;;;;;;;;;;4903927;29;20663;-66
2022/11/01 10:41:48;;;;;;;1.35;0.50;;;;;;;;;;4901072;29;20213;-64
2022/11/01 10:44:16;;;;;;;0.10;0.10;;;;;;;;;;4905618;29;20211;-64
2022/11/01 10:46:45;;;;;;;0.63;0.30;;;;;;;;;;4910894;29;20223;-66
2022/11/01 10:49:18;;;;;;;0.15;0.15;;;;;;;;;;4910837;29;20661;-64
2022/11/01 10:51:48;;;;;;;0.35;0.10;;;;;;;;;;4897763;29;20235;-65
2022/11/01 10:54:19;;;;;;;0.30;0.30;;;;;;;;;;4904922;29;20255;-65
2022/11/01 10:56:48;;;;;;;0.25;0.25;;;;;;;;;;4911021;29;20607;-65
2022/11/01 10:59:18;;;;;;;2.13;0.28;;;;;;;;;;4911206;29;20536;-65
2022/11/01 11:01:45;;;;;;;0.30;0.30;;;;;;;;;;4910464;29;20212;-65
2022/11/01 11:04:14;;;;;;;0.30;0.20;;;;;;;;;;4910312;29;20236;-63
2022/11/01 11:06:42;;;;;;;0.20;0.20;;;;;;;;;;4906863;29;20201;-64
2022/11/01 11:09:17;;;;;;;0.47;0.10;;;;;;;;;;4907878;29;20272;-63
2022/11/01 11:11:45;;;;;;;0.10;0.10;;;;;;;;;;4911302;29;20828;-63
2022/11/01 11:14:13;;;;;;;0.20;0.20;;;;;;;;;;4904039;29;20216;-62
2022/11/01 11:16:43;;;;;;;0.20;0.20;;;;;;;;;;4910648;29;20200;-63
2022/11/01 11:19:18;;;;;;;0.40;0.10;;;;;;;;;;4910652;29;20663;-62
2022/11/01 11:21:45;;;;;;;0.55;0.25;;;;;;;;;;4911020;29;20204;-64
2022/11/01 11:24:18;;;;;;;0.20;0.20;;;;;;;;;;4907962;29;20228;-65
2022/11/01 11:26:47;;;;;;;0.73;0.20;;;;;;;;;;4911037;29;20692;-64
2022/11/01 11:29:22;;;;;;;3.45;0.40;;;;;;;;;;4910459;29;20215;-62
2022/11/01 11:31:55;;;;;;;0.10;0.10;;;;;;;;;;4909560;29;20235;-65
2022/11/01 11:34:24;;;;;;;3.58;0.40;;;;;;;;;;4911070;29;20220;-64
2022/11/01 11:36:52;;;;;;;1.90;0.38;;;;;;;;;;4908903;29;20893;-63
2022/11/01 11:39:27;;;;;;;2.75;0.13;;;;;;;;;;4908979;29;20223;-63
2022/11/01 11:41:55;;;;;;;0.50;0.30;;;;;;;;;;4911923;29;20671;-74
2022/11/01 11:44:40;;;;;;;1.58;0.50;;;;;;;;;;4912562;29;20686;-74
2022/11/01 11:47:16;;;;;;;2.30;0.40;;;;;;;;;;4904021;29;20205;-62
2022/11/01 11:49:43;;;;;;;0.70;0.30;;;;;;;;;;4912179;29;20212;-62
2022/11/01 11:52:13;;;;;;;0.28;0.28;;;;;;;;;;4914293;29;20216;-65
2022/11/01 11:54:42;;;;;;;0.43;0.40;;;;;;;;;;4914130;29;20275;-65
2022/11/01 11:57:11;;;;;;;0.93;0.20;;;;;;;;;;4914339;29;20236;-66
2022/11/01 11:59:38;;;;;;;0.22;0.20;;;;;;;;;;4914285;29;20243;-65
2022/11/01 12:02:07;;;;;;;0.93;0.40;;;;;;;;;;4913596;29;20209;-60
2022/11/01 12:04:39;;;;;;;1.55;0.30;;;;;;;;;;4914112;29;20236;-61
2022/11/01 12:07:10;;;;;;;0.35;0.35;;;;;;;;;;4914012;29;20208;-63
2022/11/01 12:09:42;;;;;;;0.40;0.40;;;;;;;;;;4914499;29;20311;-62
2022/11/01 12:12:16;;;;;;;1.67;0.20;;;;;;;;;;4912218;29;20292;-62
2022/11/01 12:14:43;;;;;;;0.65;0.28;;;;;;;;;;4914128;29;20219;-72
2022/11/01 12:17:31;;;;;;;1.60;0.30;;;;;;;;;;4907972;29;20224;-73
2022/11/01 12:20:10;;;;;;;1.65;0.35;;;;;;;;;;4911856;29;20469;-65
2022/11/01 12:22:38;;;;;;;0.60;0.30;;;;;;;;;;4913514;29;20254;-64
2022/11/01 12:25:07;;;;;;;0.30;0.30;;;;;;;;;;4913731;29;20201;-65
2022/11/01 12:27:36;;;;;;;0.40;0.40;;;;;;;;;;4913928;29;20295;-65
2022/11/01 12:30:07;;;;;;;1.27;0.20;;;;;;;;;;4913221;29;20985;-65
2022/11/01 12:32:37;;;;;;;2.45;0.28;;;;;;;;;;4913531;29;20216;-65
2022/11/01 12:35:10;;;;;;;0.40;0.20;;;;;;;;;;4911115;29;20212;-63
2022/11/01 12:37:45;;;;;;;1.65;0.20;;;;;;;;;;4913924;29;20370;-65
2022/11/01 12:40:17;;;;;;;1.58;0.35;;;;;;;;;;4910910;29;20208;-65
2022/11/01 12:42:48;;;;;;;2.90;0.45;;;;;;;;;;4909033;29;20235;-64
2022/11/01 12:45:16;;;;;;;1.38;0.25;;;;;;;;;;4912273;29;20220;-65
2022/11/01 12:47:46;;;;;;;0.50;0.43;;;;;;;;;;4909348;29;20208;-65
2022/11/01 12:50:18;;;;;;;0.20;0.20;;;;;;;;;;4913760;29;20224;-64
2022/11/01 12:52:48;;;;;;;0.20;0.20;;;;;;;;;;4913624;29;20209;-64
2022/11/01 12:55:17;;;;;;;2.00;0.40;;;;;;;;;;4912115;29;20224;-65
2022/11/01 12:57:45;;;;;;;0.95;0.30;;;;;;;;;;4901964;29;20311;-64
2022/11/01 13:00:15;;;;;;;0.38;0.32;;;;;;;;;;4911359;29;20213;-64
2022/11/01 13:02:51;;;;;;;1.38;0.28;;;;;;;;;;4911578;29;20315;-65
2022/11/01 13:05:20;;;;;;;0.10;0.10;;;;;;;;;;4909622;29;20590;-65
2022/11/01 13:07:54;;;;;;;0.35;0.35;;;;;;;;;;4912761;29;20220;-65
2022/11/01 13:10:25;;;;;;;2.10;0.40;;;;;;;;;;4912757;29;20566;-65
2022/11/01 13:12:57;;;;;;;0.43;0.20;;;;;;;;;;4910430;29;20777;-65
2022/11/01 13:15:29;;;;;;;1.35;0.30;;;;;;;;;;4911985;29;20209;-64
2022/11/01 13:18:00;;;;;;;0.30;0.25;;;;;;;;;;4912541;29;20304;-64
2022/11/01 13:20:32;;;;;;;0.98;0.25;;;;;;;;;;4907317;29;20205;-64
2022/11/01 13:23:05;;;;;;;0.25;0.20;;;;;;;;;;4910743;29;20233;-64
2022/11/01 13:25:37;;;;;;;0.40;0.25;;;;;;;;;;4908516;29;20220;-62
2022/11/01 13:28:12;;;;;;;2.35;0.20;;;;;;;;;;4912748;29;20256;-63
2022/11/01 13:30:42;;;;;;;0.40;0.40;;;;;;;;;;4910338;29;20212;-65
2022/11/01 13:33:16;;;;;;;2.92;0.40;;;;;;;;;;4908421;29;20212;-64
2022/11/01 13:35:48;;;;;;;0.20;0.20;;;;;;;;;;4908649;29;20721;-63
2022/11/01 13:38:21;;;;;;;1.88;0.20;;;;;;;;;;4907674;29;20212;-66
2022/11/01 13:40:51;;;;;;;0.55;0.20;;;;;;;;;;4910920;29;20215;-70
2022/11/01 13:43:22;;;;;;;4.28;0.20;;;;;;;;;;4906359;29;20243;-64
2022/11/01 13:46:00;;;;;;;0.65;0.30;;;;;;;;;;4902704;29;20227;-65
2022/11/01 13:48:31;;;;;;;0.22;0.22;;;;;;;;;;4910873;29;20271;-64
2022/11/01 13:51:05;;;;;;;0.47;0.47;;;;;;;;;;4909474;29;20221;-64
2022/11/01 13:53:34;;;;;;;1.65;0.70;;;;;;;;;;4903339;29;20205;-66
2022/11/01 13:56:03;;;;;;;3.78;2.10;;;;;;;;;;4904569;29;20212;-62
2022/11/01 13:58:32;;;;;;;2.53;0.82;;;;;;;;;;4909066;29;20236;-66
2022/11/01 14:01:19;;;;;;;25.67;6.70;;;;;;;;;;4909440;29;20260;-64
2022/11/01 14:03:48;;;;;;;5.05;0.88;;;;;;;;;;4911156;29;20762;-64
2022/11/01 14:06:30;;;;;;;0.30;0.30;;;;;;;;;;4911213;29;20299;-62
2022/11/01 14:09:16;;;;;;;0.35;0.30;;;;;;;;;;4907570;29;20204;-63
2022/11/01 14:11:46;;;;;;;0.88;0.32;;;;;;;;;;4926133;29;20219;-62
2022/11/01 14:14:28;;;;;;;0.55;0.20;;;;;;;;;;4925333;29;20837;-62
2022/11/01 14:17:18;;;;;;;1.00;0.30;;;;;;;;;;4910700;29;20231;-62
2022/11/01 14:19:47;;;;;;;1.33;0.40;;;;;;;;;;4910268;29;20219;-63
2022/11/01 14:22:27;;;;;;;0.17;0.17;;;;;;;;;;4910917;29;20307;-62
2022/11/01 14:24:55;;;;;;;0.55;0.40;;;;;;;;;;4911427;29;20228;-63
2022/11/01 14:27:23;;;;;;;0.75;0.20;;;;;;;;;;4911768;29;20212;-62
2022/11/01 14:29:52;;;;;;;0.17;0.17;;;;;;;;;;4910844;29;20244;-62
2022/11/01 14:32:20;;;;;;;1.25;0.40;;;;;;;;;;4901855;29;20209;-63
2022/11/01 14:34:56;;;;;;;0.20;0.20;;;;;;;;;;4911547;29;20208;-62
2022/11/01 14:37:24;;;;;;;0.40;0.20;;;;;;;;;;4910690;29;20683;-62
2022/11/01 14:39:56;;;;;;;0.13;0.13;;;;;;;;;;4910873;29;20216;-62
2022/11/01 14:42:26;;;;;;;0.50;0.40;;;;;;;;;;4910456;29;20208;-62
2022/11/01 14:44:54;;;;;;;4.43;0.40;;;;;;;;;;4910323;29;20238;-62
2022/11/01 14:47:26;;;;;;;0.98;0.70;;;;;;;;;;4910843;29;20212;-62
2022/11/01 14:49:57;;;;;;;1.35;0.30;;;;;;;;;;4910391;29;20212;-62
2022/11/01 14:52:30;;;;;;;1.95;0.32;;;;;;;;;;4895902;29;20212;-62
2022/11/01 14:55:03;;;;;;;1.90;0.40;;;;;;;;;;4902410;29;20244;-63
2022/11/01 14:57:31;;;;;;;3.35;0.40;;;;;;;;;;4906541;29;20440;-63
2022/11/01 14:59:59;;;;;;;0.35;0.35;;;;;;;;;;4910065;29;20311;-63